Time,TemperatureF,DewpointF,PressureIn,WindDirection,WindDirectionDegrees,WindSpeedMPH,WindSpeedGustMPH,Humidity,HourlyPrecipIn,Conditions,Clouds,dailyrainin,SoftwareType,DateUTC
2013-10-07 00:00:00,56.2,56.2,29.67,South,176,0.0,0.0,100,0.00,,,0.00,Wunderground v.1.15,2013-10-07 04:00:00,
2013-10-07 00:02:00,56.2,56.2,29.67,South,176,0.0,11.0,100,0.00,,,0.00,Wunderground v.1.15,2013-10-07 04:02:00,
2013-10-07 00:04:00,56.0,56.0,29.67,South,176,0.0,11.0,100,0.00,,,0.00,Wunderground v.1.15,2013-10-07 04:04:00,
2013-10-07 00:05:00,56.0,55.7,29.67,South,176,0.0,11.0,99,0.00,,,0.00,Wunderground v.1.15,2013-10-07 04:05:00,
2013-10-07 00:07:00,56.0,55.2,29.67,South,176,0.0,11.0,97,0.00,,,0.00,Wunderground v.1.15,2013-10-07 04:07:00,
2013-10-07 00:12:00,56.0,56.0,29.67,South,176,0.0,0.0,100,0.00,,,0.00,Wunderground v.1.15,2013-10-07 04:12:00,
2013-10-07 00:17:00,56.0,54.6,29.67,South,176,0.0,3.0,95,0.00,,,0.00,Wunderground v.1.15,2013-10-07 04:17:00,
2013-10-07 00:24:00,56.2,56.2,29.67,South,176,0.0,0.0,100,0.00,,,0.00,Wunderground v.1.15,2013-10-07 04:24:00,
2013-10-07 00:29:00,56.2,56.2,29.67,South,176,0.0,0.0,100,0.00,,,0.00,Wunderground v.1.15,2013-10-07 04:29:00,
2013-10-07 00:34:00,56.2,54.2,29.67,South,182,0.0,0.0,93,0.00,,,0.00,Wunderground v.1.15,2013-10-07 04:34:00,
2013-10-07 00:40:00,56.3,51.2,29.67,SSW,195,0.0,0.0,83,0.00,,,0.00,Wunderground v.1.15,2013-10-07 04:40:00,
2013-10-07 00:45:00,56.5,53.6,29.67,South,182,0.0,1.0,90,0.00,,,0.00,Wunderground v.1.15,2013-10-07 04:45:00,
2013-10-07 00:51:00,56.3,55.2,29.67,South,182,0.0,0.0,96,0.00,,,0.00,Wunderground v.1.15,2013-10-07 04:51:00,
2013-10-07 00:56:00,56.2,53.9,29.67,South,182,0.0,0.0,92,0.00,,,0.00,Wunderground v.1.15,2013-10-07 04:56:00,
2013-10-07 01:02:00,56.0,51.9,29.66,SSE,155,0.0,3.0,86,0.00,,,0.00,Wunderground v.1.15,2013-10-07 05:02:00,
2013-10-07 01:07:00,56.0,53.7,29.66,SSE,155,0.0,3.0,92,0.00,,,0.00,Wunderground v.1.15,2013-10-07 05:07:00,
2013-10-07 01:14:00,55.7,53.4,29.66,SSE,158,0.0,0.0,92,0.00,,,0.00,Wunderground v.1.15,2013-10-07 05:14:00,
2013-10-07 01:19:00,55.4,51.9,29.66,SSE,158,0.0,2.0,88,0.00,,,0.00,Wunderground v.1.15,2013-10-07 05:19:00,
2013-10-07 01:24:00,55.1,52.2,29.66,SSE,158,0.0,0.0,90,0.00,,,0.00,Wunderground v.1.15,2013-10-07 05:24:00,
2013-10-07 01:29:00,54.8,51.9,29.66,SSE,158,0.0,0.0,90,0.00,,,0.00,Wunderground v.1.15,2013-10-07 05:29:00,
2013-10-07 01:34:00,54.7,52.1,29.66,SSE,158,0.0,0.0,91,0.00,,,0.00,Wunderground v.1.15,2013-10-07 05:34:00,
2013-10-07 01:40:00,54.7,52.1,29.66,SSE,158,0.0,0.0,91,0.00,,,0.00,Wunderground v.1.15,2013-10-07 05:40:00,
2013-10-07 01:45:00,54.7,53.3,29.66,SSE,158,0.0,0.0,95,0.00,,,0.00,Wunderground v.1.15,2013-10-07 05:45:00,
2013-10-07 01:50:00,54.7,53.6,29.66,SSE,158,0.0,0.0,96,0.00,,,0.00,Wunderground v.1.15,2013-10-07 05:50:00,
2013-10-07 01:56:00,54.8,54.0,29.66,SSE,157,0.0,1.0,97,0.00,,,0.00,Wunderground v.1.15,2013-10-07 05:56:00,
2013-10-07 02:01:00,55.0,53.6,29.66,SSE,157,0.0,7.0,95,0.00,,,0.00,Wunderground v.1.15,2013-10-07 06:01:00,
2013-10-07 02:07:00,55.1,51.0,29.66,SSE,164,0.0,7.0,86,0.00,,,0.00,Wunderground v.1.15,2013-10-07 06:07:00,
2013-10-07 02:14:00,55.3,51.5,29.66,SSE,164,0.0,0.0,87,0.00,,,0.00,Wunderground v.1.15,2013-10-07 06:14:00,
2013-10-07 02:19:00,55.6,51.8,29.66,NE,37,0.0,0.0,87,0.00,,,0.00,Wunderground v.1.15,2013-10-07 06:19:00,
2013-10-07 02:24:00,55.3,52.7,29.66,South,174,0.0,2.0,91,0.00,,,0.00,Wunderground v.1.15,2013-10-07 06:24:00,
2013-10-07 02:30:00,55.3,52.4,29.66,SSE,167,1.0,1.0,90,0.00,,,0.00,Wunderground v.1.15,2013-10-07 06:30:00,
2013-10-07 02:35:00,55.0,54.2,29.66,South,171,1.0,1.0,97,0.00,,,0.00,Wunderground v.1.15,2013-10-07 06:35:00,
2013-10-07 02:40:00,54.2,54.2,29.66,SSE,167,1.0,1.0,100,0.00,,,0.01,Wunderground v.1.15,2013-10-07 06:40:00,
2013-10-07 02:46:00,53.6,53.6,29.67,SSE,157,1.0,1.0,100,0.00,,,0.01,Wunderground v.1.15,2013-10-07 06:46:00,
2013-10-07 02:51:00,53.2,53.2,29.67,SSE,164,1.0,1.0,100,0.05,,,0.02,Wunderground v.1.15,2013-10-07 06:51:00,
2013-10-07 02:57:00,52.5,52.5,29.67,West,261,0.0,1.0,100,0.05,,,0.02,Wunderground v.1.15,2013-10-07 06:57:00,
2013-10-07 03:02:00,52.5,52.5,29.67,West,260,0.0,2.0,100,0.05,,,0.02,Wunderground v.1.15,2013-10-07 07:02:00,
2013-10-07 03:07:00,52.5,52.5,29.67,West,260,0.0,2.0,100,0.05,,,0.02,Wunderground v.1.15,2013-10-07 07:07:00,
2013-10-07 03:12:00,-999.9,-99.9,29.67,North,32767,-999.0,0.0,255,-99.99,,,0.02,Wunderground v.1.15,2013-10-07 07:12:00,
2013-10-07 03:18:00,-999.9,-99.9,29.66,North,32767,-999.0,0.0,255,-99.99,,,0.02,Wunderground v.1.15,2013-10-07 07:18:00,
2013-10-07 03:24:00,-999.9,-99.9,29.66,North,32767,-999.0,0.0,255,-99.99,,,0.02,Wunderground v.1.15,2013-10-07 07:24:00,
2013-10-07 03:29:00,-999.9,-99.9,29.66,North,32767,-999.0,0.0,255,-99.99,,,0.02,Wunderground v.1.15,2013-10-07 07:29:00,
2013-10-07 03:34:00,-999.9,-99.9,29.65,North,32767,-999.0,0.0,255,-99.99,,,0.02,Wunderground v.1.15,2013-10-07 07:34:00,
2013-10-07 03:40:00,-999.9,-99.9,29.65,North,32767,-999.0,0.0,255,-99.99,,,0.02,Wunderground v.1.15,2013-10-07 07:40:00,
2013-10-07 03:45:00,-999.9,-99.9,29.66,North,32767,-999.0,0.0,255,-99.99,,,0.02,Wunderground v.1.15,2013-10-07 07:45:00,
2013-10-07 03:51:00,-999.9,-99.9,29.66,North,32767,-999.0,0.0,255,-99.99,,,0.02,Wunderground v.1.15,2013-10-07 07:51:00,
2013-10-07 03:56:00,-999.9,-99.9,29.66,North,32767,-999.0,0.0,255,-99.99,,,0.02,Wunderground v.1.15,2013-10-07 07:56:00,
2013-10-07 04:01:00,-999.9,-99.9,29.66,North,32767,-999.0,7.0,255,-99.99,,,0.02,Wunderground v.1.15,2013-10-07 08:01:00,
2013-10-07 04:07:00,-999.9,-99.9,29.66,North,32767,-999.0,7.0,255,-99.99,,,0.02,Wunderground v.1.15,2013-10-07 08:07:00,
2013-10-07 04:12:00,-999.9,-99.9,29.66,North,32767,-999.0,0.0,255,-99.99,,,0.02,Wunderground v.1.15,2013-10-07 08:12:00,
2013-10-07 04:17:00,-999.9,-99.9,29.66,North,32767,-999.0,0.0,255,-99.99,,,0.02,Wunderground v.1.15,2013-10-07 08:17:00,
2013-10-07 04:23:00,-999.9,-99.9,29.66,North,32767,-999.0,0.0,255,-99.99,,,0.02,Wunderground v.1.15,2013-10-07 08:23:00,
2013-10-07 04:29:00,-999.9,-99.9,29.66,North,32767,-999.0,0.0,255,-99.99,,,0.02,Wunderground v.1.15,2013-10-07 08:29:00,
2013-10-07 04:34:00,-999.9,-99.9,29.65,North,32767,-999.0,0.0,255,-99.99,,,0.02,Wunderground v.1.15,2013-10-07 08:34:00,
2013-10-07 04:39:00,-999.9,-99.9,29.65,North,32767,-999.0,0.0,255,-99.99,,,0.02,Wunderground v.1.15,2013-10-07 08:39:00,
2013-10-07 04:44:00,-999.9,-99.9,29.65,North,32767,-999.0,0.0,255,-99.99,,,0.02,Wunderground v.1.15,2013-10-07 08:44:00,
2013-10-07 04:50:00,-999.9,-99.9,29.65,North,32767,-999.0,0.0,255,-99.99,,,0.02,Wunderground v.1.15,2013-10-07 08:50:00,
2013-10-07 04:55:00,-999.9,-99.9,29.65,North,32767,-999.0,0.0,255,-99.99,,,0.02,Wunderground v.1.15,2013-10-07 08:55:00,
2013-10-07 05:00:00,-999.9,-99.9,29.65,North,32767,-999.0,0.0,255,-99.99,,,0.02,Wunderground v.1.15,2013-10-07 09:00:00,
2013-10-07 05:06:00,-999.9,-99.9,29.65,North,32767,-999.0,0.0,255,-99.99,,,0.02,Wunderground v.1.15,2013-10-07 09:06:00,
2013-10-07 05:11:00,-999.9,-99.9,29.65,North,32767,-999.0,0.0,255,-99.99,,,0.02,Wunderground v.1.15,2013-10-07 09:11:00,
2013-10-07 05:17:00,-999.9,-99.9,29.66,North,32767,-999.0,0.0,255,-99.99,,,0.02,Wunderground v.1.15,2013-10-07 09:17:00,
2013-10-07 05:22:00,-999.9,-99.9,29.66,North,32767,-999.0,0.0,255,-99.99,,,0.02,Wunderground v.1.15,2013-10-07 09:22:00,
2013-10-07 05:27:00,-999.9,-99.9,29.66,North,32767,-999.0,0.0,255,-99.99,,,0.02,Wunderground v.1.15,2013-10-07 09:27:00,
2013-10-07 05:33:00,-999.9,-99.9,29.66,North,32767,-999.0,0.0,255,-99.99,,,0.02,Wunderground v.1.15,2013-10-07 09:33:00,
2013-10-07 05:39:00,-999.9,-99.9,29.66,North,32767,-999.0,0.0,255,-99.99,,,0.02,Wunderground v.1.15,2013-10-07 09:39:00,
2013-10-07 05:44:00,-999.9,-99.9,29.66,North,32767,-999.0,0.0,255,-99.99,,,0.02,Wunderground v.1.15,2013-10-07 09:44:00,
2013-10-07 05:49:00,-999.9,-99.9,29.66,North,32767,-999.0,0.0,255,-99.99,,,0.02,Wunderground v.1.15,2013-10-07 09:49:00,
2013-10-07 05:54:00,-999.9,-99.9,29.66,North,32767,-999.0,0.0,255,-99.99,,,0.02,Wunderground v.1.15,2013-10-07 09:54:00,
2013-10-07 05:59:00,-999.9,-99.9,29.66,North,32767,-999.0,0.0,255,-99.99,,,0.02,Wunderground v.1.15,2013-10-07 09:59:00,
2013-10-07 06:05:00,-999.9,-99.9,29.66,North,32767,-999.0,0.0,255,-99.99,,,0.02,Wunderground v.1.15,2013-10-07 10:05:00,
2013-10-07 06:10:00,-999.9,-99.9,29.66,North,32767,-999.0,0.0,255,-99.99,,,0.02,Wunderground v.1.15,2013-10-07 10:10:00,
2013-10-07 06:15:00,-999.9,-99.9,29.67,North,32767,-999.0,0.0,255,-99.99,,,0.02,Wunderground v.1.15,2013-10-07 10:15:00,
2013-10-07 06:20:00,-999.9,-99.9,29.67,North,32767,-999.0,0.0,255,-99.99,,,0.02,Wunderground v.1.15,2013-10-07 10:20:00,
2013-10-07 06:26:00,-999.9,-99.9,29.67,North,32767,-999.0,0.0,255,-99.99,,,0.02,Wunderground v.1.15,2013-10-07 10:26:00,
2013-10-07 06:31:00,-999.9,-99.9,29.67,North,32767,-999.0,0.0,255,-99.99,,,0.02,Wunderground v.1.15,2013-10-07 10:31:00,
2013-10-07 06:36:00,-999.9,-99.9,29.67,North,32767,-999.0,0.0,255,-99.99,,,0.02,Wunderground v.1.15,2013-10-07 10:36:00,
2013-10-07 06:41:00,-999.9,-99.9,29.67,North,32767,-999.0,0.0,255,-99.99,,,0.02,Wunderground v.1.15,2013-10-07 10:41:00,
2013-10-07 06:47:00,-999.9,-99.9,29.67,North,32767,-999.0,0.0,255,-99.99,,,0.02,Wunderground v.1.15,2013-10-07 10:47:00,
2013-10-07 06:52:00,-999.9,-99.9,29.67,North,32767,-999.0,0.0,255,-99.99,,,0.02,Wunderground v.1.15,2013-10-07 10:52:00,
2013-10-07 06:57:00,-999.9,-99.9,29.67,North,32767,-999.0,0.0,255,-99.99,,,0.02,Wunderground v.1.15,2013-10-07 10:57:00,
2013-10-07 07:03:00,-999.9,-99.9,29.67,North,32767,-999.0,0.0,255,-99.99,,,0.02,Wunderground v.1.15,2013-10-07 11:03:00,
2013-10-07 07:08:00,-999.9,-99.9,29.67,North,32767,-999.0,0.0,255,-99.99,,,0.02,Wunderground v.1.15,2013-10-07 11:08:00,
2013-10-07 07:14:00,-999.9,-99.9,29.67,North,32767,-999.0,0.0,255,-99.99,,,0.02,Wunderground v.1.15,2013-10-07 11:14:00,
2013-10-07 07:19:00,-999.9,-99.9,29.68,North,32767,-999.0,0.0,255,-99.99,,,0.02,Wunderground v.1.15,2013-10-07 11:19:00,
2013-10-07 07:25:00,-999.9,-99.9,29.68,North,32767,-999.0,0.0,255,-99.99,,,0.02,Wunderground v.1.15,2013-10-07 11:25:00,
2013-10-07 07:30:00,-999.9,-99.9,29.68,North,32767,-999.0,0.0,255,-99.99,,,0.02,Wunderground v.1.15,2013-10-07 11:30:00,
2013-10-07 07:36:00,-999.9,-99.9,29.68,North,32767,-999.0,0.0,255,-99.99,,,0.02,Wunderground v.1.15,2013-10-07 11:36:00,
2013-10-07 07:41:00,-999.9,-99.9,29.68,North,32767,-999.0,0.0,255,-99.99,,,0.02,Wunderground v.1.15,2013-10-07 11:41:00,
2013-10-07 07:46:00,-999.9,-99.9,29.68,North,32767,-999.0,0.0,255,-99.99,,,0.02,Wunderground v.1.15,2013-10-07 11:46:00,
2013-10-07 07:52:00,-999.9,-99.9,29.68,North,32767,-999.0,0.0,255,-99.99,,,0.02,Wunderground v.1.15,2013-10-07 11:52:00,
2013-10-07 07:57:00,-999.9,-99.9,29.68,North,32767,-999.0,0.0,255,-99.99,,,0.02,Wunderground v.1.15,2013-10-07 11:57:00,
2013-10-07 08:02:00,-999.9,-99.9,29.69,North,32767,-999.0,0.0,255,-99.99,,,0.02,Wunderground v.1.15,2013-10-07 12:02:00,
2013-10-07 08:08:00,-999.9,-99.9,29.69,North,32767,-999.0,0.0,255,-99.99,,,0.02,Wunderground v.1.15,2013-10-07 12:08:00,
2013-10-07 08:13:00,-999.9,-99.9,29.69,North,32767,-999.0,0.0,255,-99.99,,,0.02,Wunderground v.1.15,2013-10-07 12:13:00,
2013-10-07 08:18:00,-999.9,-99.9,29.70,North,32767,-999.0,0.0,255,-99.99,,,0.02,Wunderground v.1.15,2013-10-07 12:18:00,
2013-10-07 08:24:00,-999.9,-99.9,29.70,North,32767,-999.0,0.0,255,-99.99,,,0.02,Wunderground v.1.15,2013-10-07 12:24:00,
2013-10-07 08:29:00,-999.9,-99.9,29.70,North,32767,-999.0,0.0,255,-99.99,,,0.02,Wunderground v.1.15,2013-10-07 12:29:00,
2013-10-07 08:34:00,-999.9,-99.9,29.70,North,32767,-999.0,0.0,255,-99.99,,,0.02,Wunderground v.1.15,2013-10-07 12:34:00,
2013-10-07 08:40:00,-999.9,-99.9,29.70,North,32767,-999.0,0.0,255,-99.99,,,0.02,Wunderground v.1.15,2013-10-07 12:40:00,
2013-10-07 08:45:00,-999.9,-99.9,29.71,North,32767,-999.0,0.0,255,-99.99,,,0.02,Wunderground v.1.15,2013-10-07 12:45:00,
2013-10-07 08:50:00,-999.9,-99.9,29.71,North,32767,-999.0,0.0,255,-99.99,,,0.02,Wunderground v.1.15,2013-10-07 12:50:00,
2013-10-07 08:55:00,-999.9,-99.9,29.71,North,32767,-999.0,0.0,255,-99.99,,,0.02,Wunderground v.1.15,2013-10-07 12:55:00,
2013-10-07 09:01:00,-999.9,-99.9,29.72,North,32767,-999.0,0.0,255,-99.99,,,0.02,Wunderground v.1.15,2013-10-07 13:01:00,
2013-10-07 09:06:00,-999.9,-99.9,29.72,North,32767,-999.0,0.0,255,-99.99,,,0.02,Wunderground v.1.15,2013-10-07 13:06:00,
2013-10-07 09:12:00,-999.9,-99.9,29.72,North,32767,-999.0,0.0,255,-99.99,,,0.02,Wunderground v.1.15,2013-10-07 13:12:00,
2013-10-07 09:18:00,-999.9,-99.9,29.73,North,32767,-999.0,0.0,255,-99.99,,,0.02,Wunderground v.1.15,2013-10-07 13:18:00,
2013-10-07 09:23:00,-999.9,-99.9,29.73,North,32767,-999.0,0.0,255,-99.99,,,0.02,Wunderground v.1.15,2013-10-07 13:23:00,
2013-10-07 09:28:00,-999.9,-99.9,29.73,North,32767,-999.0,0.0,255,-99.99,,,0.02,Wunderground v.1.15,2013-10-07 13:28:00,
2013-10-07 09:34:00,-999.9,-99.9,29.73,North,32767,-999.0,0.0,255,-99.99,,,0.02,Wunderground v.1.15,2013-10-07 13:34:00,
2013-10-07 09:39:00,-999.9,-99.9,29.73,North,32767,-999.0,0.0,255,-99.99,,,0.02,Wunderground v.1.15,2013-10-07 13:39:00,
2013-10-07 09:44:00,-999.9,-99.9,29.73,North,32767,-999.0,0.0,255,-99.99,,,0.02,Wunderground v.1.15,2013-10-07 13:44:00,
2013-10-07 09:50:00,-999.9,-99.9,29.74,North,32767,-999.0,0.0,255,-99.99,,,0.02,Wunderground v.1.15,2013-10-07 13:50:00,
2013-10-07 09:55:00,-999.9,-99.9,29.74,North,32767,-999.0,0.0,255,-99.99,,,0.02,Wunderground v.1.15,2013-10-07 13:55:00,
2013-10-07 10:00:00,-999.9,-99.9,29.74,North,32767,-999.0,0.0,255,-99.99,,,0.02,Wunderground v.1.15,2013-10-07 14:00:00,
2013-10-07 10:06:00,-999.9,-99.9,29.74,North,32767,-999.0,0.0,255,-99.99,,,0.02,Wunderground v.1.15,2013-10-07 14:06:00,
2013-10-07 10:12:00,-999.9,-99.9,29.74,North,32767,-999.0,0.0,255,-99.99,,,0.02,Wunderground v.1.15,2013-10-07 14:12:00,
2013-10-07 10:17:00,-999.9,-99.9,29.74,North,32767,-999.0,0.0,255,-99.99,,,0.02,Wunderground v.1.15,2013-10-07 14:17:00,
2013-10-07 10:22:00,-999.9,-99.9,29.74,North,32767,-999.0,0.0,255,-99.99,,,0.02,Wunderground v.1.15,2013-10-07 14:22:00,
2013-10-07 10:27:00,-999.9,-99.9,29.74,North,32767,-999.0,0.0,255,-99.99,,,0.02,Wunderground v.1.15,2013-10-07 14:27:00,
2013-10-07 10:32:00,-999.9,-99.9,29.75,North,32767,-999.0,0.0,255,-99.99,,,0.02,Wunderground v.1.15,2013-10-07 14:32:00,
2013-10-07 10:38:00,-999.9,-99.9,29.75,North,32767,-999.0,0.0,255,-99.99,,,0.02,Wunderground v.1.15,2013-10-07 14:38:00,
2013-10-07 10:43:00,-999.9,-99.9,29.75,North,32767,-999.0,0.0,255,-99.99,,,0.02,Wunderground v.1.15,2013-10-07 14:43:00,
2013-10-07 10:49:00,-999.9,-99.9,29.75,North,32767,-999.0,0.0,255,-99.99,,,0.02,Wunderground v.1.15,2013-10-07 14:49:00,
2013-10-07 10:54:00,-999.9,-99.9,29.75,North,32767,-999.0,0.0,255,-99.99,,,0.02,Wunderground v.1.15,2013-10-07 14:54:00,
2013-10-07 10:59:00,-999.9,-99.9,29.76,North,32767,-999.0,0.0,255,-99.99,,,0.02,Wunderground v.1.15,2013-10-07 14:59:00,
2013-10-07 11:05:00,-999.9,-99.9,29.76,North,32767,-999.0,0.0,255,-99.99,,,0.02,Wunderground v.1.15,2013-10-07 15:05:00,
2013-10-07 11:11:00,-999.9,-99.9,29.76,North,32767,-999.0,0.0,255,-99.99,,,0.02,Wunderground v.1.15,2013-10-07 15:11:00,
2013-10-07 11:16:00,-999.9,-99.9,29.77,North,32767,-999.0,0.0,255,-99.99,,,0.02,Wunderground v.1.15,2013-10-07 15:16:00,
2013-10-07 11:22:00,-999.9,-99.9,29.77,North,32767,-999.0,0.0,255,-99.99,,,0.02,Wunderground v.1.15,2013-10-07 15:22:00,
2013-10-07 11:27:00,-999.9,-99.9,29.77,North,32767,-999.0,0.0,255,-99.99,,,0.02,Wunderground v.1.15,2013-10-07 15:27:00,
2013-10-07 11:32:00,-999.9,-99.9,29.77,North,32767,-999.0,0.0,255,-99.99,,,0.02,Wunderground v.1.15,2013-10-07 15:32:00,
2013-10-07 11:38:00,-999.9,-99.9,29.77,North,32767,-999.0,0.0,255,-99.99,,,0.02,Wunderground v.1.15,2013-10-07 15:38:00,
2013-10-07 11:43:00,-999.9,-99.9,29.77,North,32767,-999.0,0.0,255,-99.99,,,0.02,Wunderground v.1.15,2013-10-07 15:43:00,
2013-10-07 11:48:00,-999.9,-99.9,29.78,North,32767,-999.0,0.0,255,-99.99,,,0.02,Wunderground v.1.15,2013-10-07 15:48:00,
2013-10-07 11:54:00,-999.9,-99.9,29.78,North,32767,-999.0,0.0,255,-99.99,,,0.02,Wunderground v.1.15,2013-10-07 15:54:00,
2013-10-07 11:59:00,-999.9,-99.9,29.79,North,32767,-999.0,0.0,255,-99.99,,,0.02,Wunderground v.1.15,2013-10-07 15:59:00,
2013-10-07 12:04:00,-999.9,-99.9,29.79,North,32767,-999.0,0.0,255,-99.99,,,0.02,Wunderground v.1.15,2013-10-07 16:04:00,
2013-10-07 12:10:00,-999.9,-99.9,29.79,North,32767,-999.0,0.0,255,-99.99,,,0.02,Wunderground v.1.15,2013-10-07 16:10:00,
2013-10-07 12:15:00,-999.9,-99.9,29.80,North,32767,-999.0,0.0,255,-99.99,,,0.02,Wunderground v.1.15,2013-10-07 16:15:00,
2013-10-07 12:21:00,-999.9,-99.9,29.80,North,32767,-999.0,0.0,255,-99.99,,,0.02,Wunderground v.1.15,2013-10-07 16:21:00,
2013-10-07 12:26:00,-999.9,-99.9,29.80,North,32767,-999.0,0.0,255,-99.99,,,0.02,Wunderground v.1.15,2013-10-07 16:26:00,
2013-10-07 12:31:00,-999.9,-99.9,29.81,North,32767,-999.0,0.0,255,-99.99,,,0.02,Wunderground v.1.15,2013-10-07 16:31:00,
2013-10-07 12:37:00,-999.9,-99.9,29.81,North,32767,-999.0,0.0,255,-99.99,,,0.02,Wunderground v.1.15,2013-10-07 16:37:00,
2013-10-07 12:42:00,-999.9,-99.9,29.81,North,32767,-999.0,0.0,255,-99.99,,,0.02,Wunderground v.1.15,2013-10-07 16:42:00,
2013-10-07 12:47:00,-999.9,-99.9,29.81,North,32767,-999.0,0.0,255,-99.99,,,0.02,Wunderground v.1.15,2013-10-07 16:47:00,
2013-10-07 12:53:00,-999.9,-99.9,29.81,North,32767,-999.0,0.0,255,-99.99,,,0.02,Wunderground v.1.15,2013-10-07 16:53:00,
2013-10-07 12:58:00,-999.9,-99.9,29.81,North,32767,-999.0,0.0,255,-99.99,,,0.02,Wunderground v.1.15,2013-10-07 16:58:00,
2013-10-07 13:05:00,-999.9,-99.9,29.82,North,32767,-999.0,0.0,255,-99.99,,,0.02,Wunderground v.1.15,2013-10-07 17:05:00,
2013-10-07 13:10:00,-999.9,-99.9,29.82,North,32767,-999.0,0.0,255,-99.99,,,0.02,Wunderground v.1.15,2013-10-07 17:10:00,
2013-10-07 13:16:00,-999.9,-99.9,29.83,North,32767,-999.0,0.0,255,-99.99,,,0.02,Wunderground v.1.15,2013-10-07 17:16:00,
2013-10-07 13:21:00,-999.9,-99.9,29.83,North,32767,-999.0,0.0,255,-99.99,,,0.02,Wunderground v.1.15,2013-10-07 17:21:00,
2013-10-07 13:26:00,-999.9,-99.9,29.83,North,32767,-999.0,0.0,255,-99.99,,,0.02,Wunderground v.1.15,2013-10-07 17:26:00,
2013-10-07 13:32:00,-999.9,-99.9,29.83,North,32767,-999.0,0.0,255,-99.99,,,0.02,Wunderground v.1.15,2013-10-07 17:32:00,
2013-10-07 13:37:00,-999.9,-99.9,29.83,North,32767,-999.0,0.0,255,-99.99,,,0.02,Wunderground v.1.15,2013-10-07 17:37:00,
2013-10-07 13:42:00,-999.9,-99.9,29.83,North,32767,-999.0,0.0,255,-99.99,,,0.02,Wunderground v.1.15,2013-10-07 17:42:00,
2013-10-07 13:48:00,-999.9,-99.9,29.84,North,32767,-999.0,0.0,255,-99.99,,,0.02,Wunderground v.1.15,2013-10-07 17:48:00,
2013-10-07 13:53:00,-999.9,-99.9,29.84,North,32767,-999.0,0.0,255,-99.99,,,0.02,Wunderground v.1.15,2013-10-07 17:53:00,
2013-10-07 13:59:00,60.9,55.0,29.84,West,260,2.0,10.0,81,0.00,,,0.02,Wunderground v.1.15,2013-10-07 17:59:00,
2013-10-07 14:05:00,60.4,54.9,29.84,West,274,5.0,11.0,82,0.00,,,0.02,Wunderground v.1.15,2013-10-07 18:05:00,
2013-10-07 14:10:00,60.2,55.3,29.84,NNW,342,3.0,11.0,84,0.00,,,0.02,Wunderground v.1.15,2013-10-07 18:10:00,
2013-10-07 14:15:00,60.2,54.7,29.85,WNW,289,3.0,10.0,82,0.00,,,0.02,Wunderground v.1.15,2013-10-07 18:15:00,
2013-10-07 14:20:00,60.4,54.5,29.85,West,277,5.0,10.0,81,0.00,,,0.02,Wunderground v.1.15,2013-10-07 18:20:00,
2013-10-07 14:26:00,60.5,54.3,29.85,West,264,5.0,6.0,80,0.00,,,0.02,Wunderground v.1.15,2013-10-07 18:26:00,
2013-10-07 14:31:00,60.5,55.0,29.85,SSW,195,4.0,4.0,82,0.00,,,0.02,Wunderground v.1.15,2013-10-07 18:31:00,
2013-10-07 14:37:00,60.5,57.2,29.85,West,264,5.0,8.0,89,0.00,,,0.02,Wunderground v.1.15,2013-10-07 18:37:00,
2013-10-07 14:42:00,60.7,56.2,29.85,SSE,152,4.0,5.0,85,0.00,,,0.02,Wunderground v.1.15,2013-10-07 18:42:00,
2013-10-07 14:49:00,60.5,56.6,29.86,West,260,4.0,5.0,87,0.00,,,0.02,Wunderground v.1.15,2013-10-07 18:49:00,
2013-10-07 14:54:00,60.7,56.2,29.86,WSW,254,4.0,6.0,85,0.00,,,0.02,Wunderground v.1.15,2013-10-07 18:54:00,
2013-10-07 14:59:00,60.7,56.2,29.86,South,191,4.0,7.0,85,0.00,,,0.02,Wunderground v.1.15,2013-10-07 18:59:00,
2013-10-07 15:04:00,60.7,55.5,29.86,SSW,203,4.0,17.0,83,0.00,,,0.02,Wunderground v.1.15,2013-10-07 19:04:00,
2013-10-07 15:10:00,60.5,55.6,29.86,SSW,208,3.0,5.0,84,0.00,,,0.02,Wunderground v.1.15,2013-10-07 19:10:00,
2013-10-07 15:16:00,60.9,54.7,29.87,South,188,3.0,8.0,80,0.00,,,0.02,Wunderground v.1.15,2013-10-07 19:16:00,
2013-10-07 15:21:00,60.9,54.3,29.87,SW,222,3.0,3.0,79,0.00,,,0.02,Wunderground v.1.15,2013-10-07 19:21:00,
2013-10-07 15:26:00,61.0,55.5,29.87,South,188,3.0,4.0,82,0.00,,,0.02,Wunderground v.1.15,2013-10-07 19:26:00,
2013-10-07 15:32:00,61.0,56.8,29.87,SW,223,2.0,7.0,86,0.00,,,0.02,Wunderground v.1.15,2013-10-07 19:32:00,
2013-10-07 15:37:00,61.6,56.0,29.87,South,171,3.0,7.0,82,0.00,,,0.02,Wunderground v.1.15,2013-10-07 19:37:00,
2013-10-07 15:44:00,62.0,54.7,29.87,SSE,167,3.0,7.0,77,0.00,,,0.02,Wunderground v.1.15,2013-10-07 19:44:00,
2013-10-07 15:49:00,61.8,54.2,29.88,WSW,244,4.0,10.0,76,0.00,,,0.02,Wunderground v.1.15,2013-10-07 19:49:00,
2013-10-07 15:54:00,62.0,54.7,29.88,WSW,247,4.0,8.0,77,0.00,,,0.02,Wunderground v.1.15,2013-10-07 19:54:00,
2013-10-07 15:59:00,62.0,54.0,29.88,NE,34,3.0,8.0,75,0.00,,,0.02,Wunderground v.1.15,2013-10-07 19:59:00,
2013-10-07 16:06:00,61.8,53.8,29.88,NNE,32,3.0,17.0,75,0.00,,,0.02,Wunderground v.1.15,2013-10-07 20:06:00,
2013-10-07 16:11:00,62.1,54.4,29.88,NNE,27,3.0,3.0,76,0.00,,,0.02,Wunderground v.1.15,2013-10-07 20:11:00,
2013-10-07 16:16:00,62.3,53.5,29.89,NNE,23,2.0,8.0,73,0.00,,,0.02,Wunderground v.1.15,2013-10-07 20:16:00,
2013-10-07 16:22:00,61.3,53.3,29.89,West,260,4.0,8.0,75,0.00,,,0.02,Wunderground v.1.15,2013-10-07 20:22:00,
2013-10-07 16:27:00,62.0,54.7,29.89,South,185,3.0,8.0,77,0.00,,,0.02,Wunderground v.1.15,2013-10-07 20:27:00,
2013-10-07 16:34:00,62.1,53.7,29.89,SSW,196,2.0,7.0,74,0.00,,,0.02,Wunderground v.1.15,2013-10-07 20:34:00,
2013-10-07 16:39:00,62.4,54.7,29.89,SSW,195,2.0,7.0,76,0.00,,,0.02,Wunderground v.1.15,2013-10-07 20:39:00,
2013-10-07 16:44:00,62.7,53.9,29.89,West,275,1.0,5.0,73,0.00,,,0.02,Wunderground v.1.15,2013-10-07 20:44:00,
2013-10-07 16:49:00,62.9,54.1,29.89,WSW,243,2.0,5.0,73,0.00,,,0.02,Wunderground v.1.15,2013-10-07 20:49:00,
2013-10-07 16:55:00,63.1,53.5,29.89,WNW,291,2.0,5.0,71,0.00,,,0.02,Wunderground v.1.15,2013-10-07 20:55:00,
2013-10-07 17:00:00,62.4,53.3,29.90,SSW,205,2.0,2.0,72,0.00,,,0.02,Wunderground v.1.15,2013-10-07 21:00:00,
2013-10-07 17:06:00,62.1,53.3,29.90,SSW,198,2.0,12.0,73,0.00,,,0.02,Wunderground v.1.15,2013-10-07 21:06:00,
2013-10-07 17:11:00,62.1,54.1,29.90,SSW,198,1.0,2.0,75,0.00,,,0.02,Wunderground v.1.15,2013-10-07 21:11:00,
2013-10-07 17:17:00,62.0,53.2,29.90,South,172,1.0,2.0,73,0.00,,,0.02,Wunderground v.1.15,2013-10-07 21:17:00,
2013-10-07 17:22:00,61.8,53.4,29.90,WNW,282,2.0,3.0,74,0.00,,,0.02,Wunderground v.1.15,2013-10-07 21:22:00,
2013-10-07 17:27:00,61.6,52.9,29.90,South,188,2.0,5.0,73,0.00,,,0.02,Wunderground v.1.15,2013-10-07 21:27:00,
2013-10-07 17:34:00,61.3,52.9,29.90,SSE,158,2.0,5.0,74,0.00,,,0.02,Wunderground v.1.15,2013-10-07 21:34:00,
2013-10-07 17:39:00,61.3,52.2,29.90,SSE,167,2.0,5.0,72,0.00,,,0.02,Wunderground v.1.15,2013-10-07 21:39:00,
2013-10-07 17:44:00,61.3,51.0,29.91,WSW,243,2.0,2.0,69,0.00,,,0.02,Wunderground v.1.15,2013-10-07 21:44:00,
2013-10-07 17:50:00,61.3,51.4,29.91,South,186,1.0,3.0,70,0.00,,,0.02,Wunderground v.1.15,2013-10-07 21:50:00,
2013-10-07 17:55:00,61.3,51.4,29.91,West,281,1.0,7.0,70,0.00,,,0.02,Wunderground v.1.15,2013-10-07 21:55:00,
2013-10-07 18:01:00,61.2,50.9,29.91,West,281,0.0,2.0,69,0.00,,,0.02,Wunderground v.1.15,2013-10-07 22:01:00,
2013-10-07 18:06:00,61.0,51.5,29.91,West,281,0.0,11.0,71,0.00,,,0.02,Wunderground v.1.15,2013-10-07 22:06:00,
2013-10-07 18:11:00,61.0,52.3,29.91,West,281,0.0,2.0,73,0.00,,,0.02,Wunderground v.1.15,2013-10-07 22:11:00,
2013-10-07 18:17:00,60.9,52.6,29.92,West,281,1.0,2.0,74,0.00,,,0.02,Wunderground v.1.15,2013-10-07 22:17:00,
2013-10-07 18:22:00,60.9,51.8,29.92,South,176,1.0,2.0,72,0.00,,,0.02,Wunderground v.1.15,2013-10-07 22:22:00,
2013-10-07 18:28:00,60.7,51.6,29.92,South,176,0.0,2.0,72,0.00,,,0.02,Wunderground v.1.15,2013-10-07 22:28:00,
2013-10-07 18:34:00,60.4,51.7,29.92,South,176,0.0,3.0,73,0.00,,,0.02,Wunderground v.1.15,2013-10-07 22:34:00,
2013-10-07 18:39:00,60.4,51.7,29.92,South,176,0.0,3.0,73,0.00,,,0.02,Wunderground v.1.15,2013-10-07 22:39:00,
2013-10-07 18:44:00,60.1,51.0,29.92,West,275,0.0,0.0,72,0.00,,,0.02,Wunderground v.1.15,2013-10-07 22:44:00,
2013-10-07 18:49:00,59.8,51.9,29.93,West,275,0.0,0.0,75,0.00,,,0.02,Wunderground v.1.15,2013-10-07 22:49:00,
2013-10-07 18:55:00,59.6,52.0,29.93,West,275,0.0,0.0,76,0.00,,,0.02,Wunderground v.1.15,2013-10-07 22:55:00,
2013-10-07 19:00:00,59.5,55.9,29.93,West,275,0.0,0.0,88,0.00,,,0.02,Wunderground v.1.15,2013-10-07 23:00:00,
2013-10-07 19:06:00,59.0,53.8,29.93,West,274,0.0,10.0,83,0.00,,,0.02,Wunderground v.1.15,2013-10-07 23:06:00,
2013-10-07 19:12:00,58.4,55.5,29.93,West,274,0.0,0.0,90,0.00,,,0.02,Wunderground v.1.15,2013-10-07 23:12:00,
2013-10-07 19:17:00,57.6,55.9,29.94,West,274,0.0,0.0,94,0.00,,,0.02,Wunderground v.1.15,2013-10-07 23:17:00,
2013-10-07 19:23:00,57.0,54.7,29.94,West,274,0.0,0.0,92,0.00,,,0.02,Wunderground v.1.15,2013-10-07 23:23:00,
2013-10-07 19:29:00,56.3,56.3,29.94,West,271,0.0,0.0,100,0.00,,,0.02,Wunderground v.1.15,2013-10-07 23:29:00,
2013-10-07 19:34:00,55.6,55.6,29.95,WSW,243,0.0,0.0,100,0.00,,,0.02,Wunderground v.1.15,2013-10-07 23:34:00,
2013-10-07 19:40:00,54.8,54.8,29.95,West,272,0.0,0.0,100,0.00,,,0.02,Wunderground v.1.15,2013-10-07 23:40:00,
2013-10-07 19:45:00,54.1,54.1,29.95,West,272,0.0,0.0,100,0.00,,,0.02,Wunderground v.1.15,2013-10-07 23:45:00,
2013-10-07 19:51:00,53.5,53.5,29.95,West,272,0.0,0.0,100,0.00,,,0.02,Wunderground v.1.15,2013-10-07 23:51:00,
2013-10-07 19:56:00,53.1,53.1,29.95,West,271,0.0,0.0,100,0.00,,,0.02,Wunderground v.1.15,2013-10-07 23:56:00,
2013-10-07 20:02:00,52.8,52.8,29.96,West,271,0.0,5.0,100,0.00,,,0.02,Wunderground v.1.15,2013-10-08 00:02:00,
2013-10-07 20:08:00,52.5,52.5,29.96,West,270,0.0,5.0,100,0.00,,,0.02,Wunderground v.1.15,2013-10-08 00:08:00,
2013-10-07 20:14:00,52.5,52.5,29.96,West,270,0.0,0.0,100,0.00,,,0.02,Wunderground v.1.15,2013-10-08 00:14:00,
2013-10-07 20:19:00,-999.9,-99.9,29.96,North,32767,-999.0,0.0,255,-99.99,,,0.02,Wunderground v.1.15,2013-10-08 00:19:00,
2013-10-07 20:24:00,-999.9,-99.9,29.96,North,32767,-999.0,0.0,255,-99.99,,,0.02,Wunderground v.1.15,2013-10-08 00:24:00,
2013-10-07 20:30:00,-999.9,-99.9,29.96,North,32767,-999.0,0.0,255,-99.99,,,0.02,Wunderground v.1.15,2013-10-08 00:30:00,
2013-10-07 20:35:00,-999.9,-99.9,29.96,North,32767,-999.0,0.0,255,-99.99,,,0.02,Wunderground v.1.15,2013-10-08 00:35:00,
2013-10-07 20:41:00,-999.9,-99.9,29.96,North,32767,-999.0,0.0,255,-99.99,,,0.02,Wunderground v.1.15,2013-10-08 00:41:00,
2013-10-07 20:47:00,-999.9,-99.9,29.97,North,32767,-999.0,0.0,255,-99.99,,,0.02,Wunderground v.1.15,2013-10-08 00:47:00,
2013-10-07 20:52:00,-999.9,-99.9,29.97,North,32767,-999.0,0.0,255,-99.99,,,0.02,Wunderground v.1.15,2013-10-08 00:52:00,
2013-10-07 20:57:00,-999.9,-99.9,29.97,North,32767,-999.0,0.0,255,-99.99,,,0.02,Wunderground v.1.15,2013-10-08 00:57:00,
2013-10-07 21:02:00,-999.9,-99.9,29.97,North,32767,-999.0,0.0,255,-99.99,,,0.02,Wunderground v.1.15,2013-10-08 01:02:00,
2013-10-07 21:08:00,-999.9,-99.9,29.97,North,32767,-999.0,0.0,255,-99.99,,,0.02,Wunderground v.1.15,2013-10-08 01:08:00,
2013-10-07 21:14:00,-999.9,-99.9,29.97,North,32767,-999.0,0.0,255,-99.99,,,0.02,Wunderground v.1.15,2013-10-08 01:14:00,
2013-10-07 21:19:00,-999.9,-99.9,29.98,North,32767,-999.0,0.0,255,-99.99,,,0.02,Wunderground v.1.15,2013-10-08 01:19:00,
2013-10-07 21:24:00,-999.9,-99.9,29.98,North,32767,-999.0,0.0,255,-99.99,,,0.02,Wunderground v.1.15,2013-10-08 01:24:00,
2013-10-07 21:30:00,-999.9,-99.9,29.98,North,32767,-999.0,0.0,255,-99.99,,,0.02,Wunderground v.1.15,2013-10-08 01:30:00,
2013-10-07 21:35:00,-999.9,-99.9,29.98,North,32767,-999.0,0.0,255,-99.99,,,0.02,Wunderground v.1.15,2013-10-08 01:35:00,
2013-10-07 21:41:00,-999.9,-99.9,29.98,North,32767,-999.0,0.0,255,-99.99,,,0.02,Wunderground v.1.15,2013-10-08 01:41:00,
2013-10-07 21:46:00,-999.9,-99.9,29.99,North,32767,-999.0,0.0,255,-99.99,,,0.02,Wunderground v.1.15,2013-10-08 01:46:00,
2013-10-07 21:52:00,-999.9,-99.9,29.99,North,32767,-999.0,0.0,255,-99.99,,,0.02,Wunderground v.1.15,2013-10-08 01:52:00,
2013-10-07 21:57:00,-999.9,-99.9,29.99,North,32767,-999.0,0.0,255,-99.99,,,0.02,Wunderground v.1.15,2013-10-08 01:57:00,
2013-10-07 22:02:00,-999.9,-99.9,30.00,North,32767,-999.0,0.0,255,-99.99,,,0.02,Wunderground v.1.15,2013-10-08 02:02:00,
2013-10-07 22:08:00,-999.9,-99.9,30.00,North,32767,-999.0,0.0,255,-99.99,,,0.02,Wunderground v.1.15,2013-10-08 02:08:00,
2013-10-07 22:14:00,-999.9,-99.9,30.00,North,32767,-999.0,0.0,255,-99.99,,,0.02,Wunderground v.1.15,2013-10-08 02:14:00,
2013-10-07 22:19:00,-999.9,-99.9,30.01,North,32767,-999.0,0.0,255,-99.99,,,0.02,Wunderground v.1.15,2013-10-08 02:19:00,
2013-10-07 22:25:00,-999.9,-99.9,30.01,North,32767,-999.0,0.0,255,-99.99,,,0.02,Wunderground v.1.15,2013-10-08 02:25:00,
2013-10-07 22:30:00,-999.9,-99.9,30.01,North,32767,-999.0,0.0,255,-99.99,,,0.02,Wunderground v.1.15,2013-10-08 02:30:00,
2013-10-07 22:35:00,-999.9,-99.9,30.01,North,32767,-999.0,0.0,255,-99.99,,,0.02,Wunderground v.1.15,2013-10-08 02:35:00,
2013-10-07 22:41:00,-999.9,-99.9,30.01,North,32767,-999.0,0.0,255,-99.99,,,0.02,Wunderground v.1.15,2013-10-08 02:41:00,
2013-10-07 22:46:00,-999.9,-99.9,30.01,North,32767,-999.0,0.0,255,-99.99,,,0.02,Wunderground v.1.15,2013-10-08 02:46:00,
2013-10-07 22:51:00,-999.9,-99.9,30.01,North,32767,-999.0,0.0,255,-99.99,,,0.02,Wunderground v.1.15,2013-10-08 02:51:00,
2013-10-07 22:57:00,-999.9,-99.9,30.01,North,32767,-999.0,0.0,255,-99.99,,,0.02,Wunderground v.1.15,2013-10-08 02:57:00,
2013-10-07 23:02:00,-999.9,-99.9,30.02,North,32767,-999.0,0.0,255,-99.99,,,0.02,Wunderground v.1.15,2013-10-08 03:02:00,
2013-10-07 23:08:00,-999.9,-99.9,30.02,North,32767,-999.0,0.0,255,-99.99,,,0.02,Wunderground v.1.15,2013-10-08 03:08:00,
2013-10-07 23:14:00,-999.9,-99.9,30.02,North,32767,-999.0,0.0,255,-99.99,,,0.02,Wunderground v.1.15,2013-10-08 03:14:00,
2013-10-07 23:19:00,-999.9,-99.9,30.02,North,32767,-999.0,0.0,255,-99.99,,,0.02,Wunderground v.1.15,2013-10-08 03:19:00,
2013-10-07 23:24:00,-999.9,-99.9,30.02,North,32767,-999.0,0.0,255,-99.99,,,0.02,Wunderground v.1.15,2013-10-08 03:24:00,
2013-10-07 23:30:00,-999.9,-99.9,30.03,North,32767,-999.0,0.0,255,-99.99,,,0.02,Wunderground v.1.15,2013-10-08 03:30:00,
2013-10-07 23:36:00,-999.9,-99.9,30.03,North,32767,-999.0,0.0,255,-99.99,,,0.02,Wunderground v.1.15,2013-10-08 03:36:00,
2013-10-07 23:41:00,-999.9,-99.9,30.03,North,32767,-999.0,0.0,255,-99.99,,,0.02,Wunderground v.1.15,2013-10-08 03:41:00,
2013-10-07 23:47:00,-999.9,-99.9,30.03,North,32767,-999.0,0.0,255,-99.99,,,0.02,Wunderground v.1.15,2013-10-08 03:47:00,
2013-10-07 23:53:00,-999.9,-99.9,30.03,North,32767,-999.0,0.0,255,-99.99,,,0.02,Wunderground v.1.15,2013-10-08 03:53:00,
2013-10-07 23:58:00,-999.9,-99.9,30.03,North,32767,-999.0,0.0,255,-99.99,,,0.02,Wunderground v.1.15,2013-10-08 03:58:00,